메인 페이지
METAR-TAF:

METAR-TAF

공항 :

시즈오카 공항

시즈오카, 일본

위도: 34-47-46N, 경도: 138-11-22E, 고도: 132m

현재 날씨관측

예보는 44분 전, 08:00시(UTC)에 발표되었습니다.
남남서11kt풍과 서남서풍을 오가는
온도 30°C
습도 70%
기압 1012 hPa
시정 10km 이상
고도 1500ft 상공 구름 조금

METAR: RJNS 200800Z 20011KT 180V250 9999 FEW015 30/24 Q1012

시각: 17:44 (08:44 UTC)

예보

예보는 3 시간 39분 전, 05:05시(UTC)에 발표되었습니다.
예보 대상 시간: 20일 06시부터 21일 12시까지 (UTC)
남남서10kt
시정 10km 이상
고도 1500ft 상공 구름 조금
고도 3000ft 상공 구름 보통
전환 중
20일 11시부터 20일 13시까지 (UTC)
서북서4kt
일시적
20일 15시부터 20일 21시까지 (UTC)
고도 500ft 상공 구름 조금
고도 800ft 상공 구름 많음
전환 중
21일 00시부터 21일 03시까지 (UTC)
남서12kt

TAF: RJNS 200505Z 2006/2112 21010KT 9999 FEW015 SCT030 BECMG 2011/2013 29004KT TEMPO 2015/2021 FEW005 BKN008 BECMG 2100/2103 23012KT

4,000개 이상의 공항 관측 자료 및 예보 (METAR 및 TAF 보고).

지도상에서 검색 가능한 기상관측소가 노란 점과 빨간 점으로 표시되어 있습니다.

기상관측소 명을 보려면 표시 위로 마우스를 이동하세요.

날씨 관측과 예보를 보려면 클릭하세요.

지도 변경 : 확대하려면 엑스 표시가 있는 녹색 버튼, 축소하려면 빼기 표시가 있는 녹색 버튼, 다음 페이지의 지도를 보려면 녹색 화살표를 클릭하세요.


METAR-TAF: